Time;durP1;ratioP1;P1;durP2;ratioP2;P2;SDS_P1;SDS_P2;PMS_P1;PMS_P2;Temp;Humidity;BMP_temperature;BMP_pressure;BME280_temperature;BME280_humidity;BME280_pressure;Samples;Min_cycle;Max_cycle;Signal;HPM_P1;HPM_P2
2022/03/26 00:00:22;;;;;;;13.82;8.77;;;;;;;19.86;35.30;102998.75;16134707;19;129515;-44
2022/03/26 00:05:44;;;;;;;13.30;8.75;;;;;;;19.83;35.73;103001.94;16135171;19;129761;-45
2022/03/26 00:11:05;;;;;;;12.68;8.48;;;;;;;19.81;35.62;103001.31;16144278;19;130319;-42
2022/03/26 00:16:27;;;;;;;13.60;7.90;;;;;;;19.77;35.65;103003.63;16148806;19;130183;-43
2022/03/26 00:21:50;;;;;;;15.80;8.13;;;;;;;19.74;35.49;103008.72;16149098;19;130064;-48
2022/03/26 00:27:12;;;;;;;11.18;8.02;;;;;;;19.71;35.82;103003.56;16149380;19;129644;-46
2022/03/26 00:32:34;;;;;;;11.55;7.72;;;;;;;19.67;35.75;103006.78;16146294;19;129003;-45
2022/03/26 00:37:56;;;;;;;9.95;7.95;;;;;;;19.64;35.54;103001.63;16146121;19;130615;-45
2022/03/26 00:43:17;;;;;;;10.25;7.72;;;;;;;19.62;35.47;103006.50;16147630;19;130076;-43
2022/03/26 00:48:39;;;;;;;9.32;6.97;;;;;;;19.60;35.81;102993.91;16146392;19;132515;-46
2022/03/26 00:54:01;;;;;;;9.32;7.22;;;;;;;19.56;35.44;102987.03;16144686;19;129443;-48
2022/03/26 00:59:23;;;;;;;10.05;7.63;;;;;;;19.54;35.65;102990.03;16145950;19;128871;-44
2022/03/26 01:04:45;;;;;;;9.55;6.90;;;;;;;19.51;35.38;102994.03;16145582;19;130630;-43
2022/03/26 01:10:07;;;;;;;11.55;7.60;;;;;;;19.50;35.35;102988.69;16145531;19;130333;-45
2022/03/26 01:15:29;;;;;;;11.43;7.35;;;;;;;19.46;35.49;102987.38;16141099;19;129106;-47
2022/03/26 01:20:51;;;;;;;7.93;6.90;;;;;;;19.45;35.36;102980.09;16143691;19;130174;-47
2022/03/26 01:26:14;;;;;;;7.95;6.93;;;;;;;19.44;35.27;102983.97;16145200;19;130751;-43
2022/03/26 01:31:37;;;;;;;10.55;6.95;;;;;;;19.39;35.50;102981.78;16144013;19;130575;-45
2022/03/26 01:36:59;;;;;;;11.80;8.13;;;;;;;19.37;34.88;102978.38;16145750;19;129000;-44
2022/03/26 01:42:21;;;;;;;13.10;8.93;;;;;;;19.34;34.71;102974.06;16139307;19;129120;-44
2022/03/26 01:47:43;;;;;;;9.48;7.90;;;;;;;19.33;34.96;102979.81;16145954;19;129649;-46
2022/03/26 01:53:05;;;;;;;11.52;8.10;;;;;;;19.30;35.13;102980.22;16141263;19;129274;-44
2022/03/26 01:58:27;;;;;;;11.63;8.25;;;;;;;19.28;34.94;102969.31;16144705;19;130789;-43
2022/03/26 02:03:50;;;;;;;9.73;8.07;;;;;;;19.27;34.63;102966.72;16144341;19;130074;-46
2022/03/26 02:09:14;;;;;;;12.68;8.52;;;;;;;19.25;34.48;102952.22;16142922;19;128864;-44
2022/03/26 02:14:36;;;;;;;12.00;7.97;;;;;;;19.24;34.56;102962.44;16138346;19;130359;-43
2022/03/26 02:20:00;;;;;;;13.20;7.93;;;;;;;19.21;34.65;102965.63;16143289;19;129550;-45
2022/03/26 02:25:21;;;;;;;10.23;7.55;;;;;;;19.18;34.83;102968.78;16143603;19;128970;-45
2022/03/26 02:30:43;;;;;;;11.85;8.27;;;;;;;19.17;35.00;102970.69;16138857;19;129400;-46
2022/03/26 02:36:06;;;;;;;9.13;7.15;;;;;;;19.16;35.14;102970.91;16141017;19;130324;-44
2022/03/26 02:41:28;;;;;;;10.27;7.47;;;;;;;19.15;34.86;102974.72;16141965;19;132082;-43
2022/03/26 02:46:49;;;;;;;11.77;8.45;;;;;;;19.13;34.64;102985.16;16136769;19;129069;-43
2022/03/26 02:52:11;;;;;;;10.98;8.20;;;;;;;19.10;34.21;102975.31;16138848;19;130031;-46
2022/03/26 02:57:33;;;;;;;12.73;7.68;;;;;;;19.08;34.67;102980.22;16142086;19;129509;-44
2022/03/26 03:02:55;;;;;;;10.50;7.38;;;;;;;19.07;34.63;102975.72;16141243;19;131708;-45
2022/03/26 03:08:17;;;;;;;9.27;6.93;;;;;;;19.06;34.63;102977.66;16139499;19;130095;-49
2022/03/26 03:13:39;;;;;;;9.75;7.28;;;;;;;19.04;34.75;102987.19;16134386;19;128986;-45
2022/03/26 03:19:00;;;;;;;10.82;7.72;;;;;;;19.02;34.55;102981.00;16139643;19;129838;-45
2022/03/26 03:24:22;;;;;;;10.82;8.10;;;;;;;19.01;34.23;102985.69;16139751;19;129352;-43
2022/03/26 03:29:44;;;;;;;10.57;7.88;;;;;;;18.99;34.33;102982.25;16133011;19;129804;-44
2022/03/26 03:35:06;;;;;;;9.32;7.70;;;;;;;18.98;34.47;102988.84;16137219;19;129252;-45
2022/03/26 03:40:28;;;;;;;8.98;7.45;;;;;;;18.95;34.33;102980.09;16139005;19;130440;-43
2022/03/26 03:45:50;;;;;;;9.07;7.22;;;;;;;18.94;34.31;102990.34;16144904;19;129075;-44
2022/03/26 03:51:12;;;;;;;10.13;7.43;;;;;;;18.92;34.49;102984.13;16150727;19;129210;-47
2022/03/26 03:56:34;;;;;;;9.90;7.05;;;;;;;18.90;34.19;102978.75;16152710;19;129581;-47
2022/03/26 04:01:56;;;;;;;7.32;6.63;;;;;;;18.89;34.36;102982.56;16150283;19;129788;-46
2022/03/26 04:07:18;;;;;;;10.85;7.50;;;;;;;18.88;33.87;102991.97;16152220;19;130877;-44
2022/03/26 04:12:42;;;;;;;11.55;7.80;;;;;;;18.88;34.23;102996.66;16149153;19;129086;-45
2022/03/26 04:18:04;;;;;;;12.80;8.05;;;;;;;18.86;33.99;103001.53;16150643;19;129279;-48
2022/03/26 04:23:26;;;;;;;10.80;7.25;;;;;;;18.84;34.01;103009.19;16148202;19;129557;-45
2022/03/26 04:28:48;;;;;;;8.63;6.50;;;;;;;18.83;34.50;103010.28;16148795;19;130632;-46
2022/03/26 04:34:10;;;;;;;9.50;6.93;;;;;;;18.81;34.54;103006.84;16145265;19;132280;-44
2022/03/26 04:39:32;;;;;;;8.80;6.25;;;;;;;18.79;34.23;103009.78;16149733;19;130532;-43
2022/03/26 04:44:54;;;;;;;8.75;6.20;;;;;;;18.79;34.07;103008.94;16145453;19;129061;-43
2022/03/26 04:50:16;;;;;;;8.98;6.75;;;;;;;18.77;34.10;103000.78;16147527;19;129399;-43
2022/03/26 04:55:38;;;;;;;8.15;6.40;;;;;;;18.76;34.33;103005.50;16146332;19;129652;-44
2022/03/26 05:01:00;;;;;;;7.93;6.57;;;;;;;18.75;34.08;103011.25;16146586;19;129286;-45
2022/03/26 05:06:22;;;;;;;8.80;6.60;;;;;;;18.73;33.86;103008.66;16144359;19;129512;-45
2022/03/26 05:11:45;;;;;;;6.97;6.28;;;;;;;18.71;33.93;103007.16;16144003;19;130197;-44
2022/03/26 05:17:07;;;;;;;8.35;6.25;;;;;;;18.70;34.36;103013.75;16145300;19;129729;-44
2022/03/26 05:22:28;;;;;;;10.05;6.72;;;;;;;18.70;34.36;103022.06;16141392;19;129166;-45
2022/03/26 05:27:52;;;;;;;9.60;6.97;;;;;;;18.68;34.24;103030.59;16145712;19;129700;-45
2022/03/26 05:33:13;;;;;;;9.23;6.57;;;;;;;18.67;33.96;103023.31;16143617;19;130674;-45
2022/03/26 05:38:36;;;;;;;7.43;6.22;;;;;;;18.66;34.12;103027.16;16144334;19;129581;-46
2022/03/26 05:43:58;;;;;;;9.05;6.05;;;;;;;18.65;34.17;103032.88;16142506;19;131422;-46
2022/03/26 05:49:21;;;;;;;7.47;5.95;;;;;;;18.63;34.11;103033.06;16143014;19;129792;-49
2022/03/26 05:54:42;;;;;;;8.95;6.05;;;;;;;18.62;34.20;103039.66;16139641;19;131492;-46
2022/03/26 06:00:06;;;;;;;7.43;5.82;;;;;;;18.61;33.76;103041.59;16142846;19;130539;-44
2022/03/26 06:05:28;;;;;;;8.80;5.85;;;;;;;18.60;34.14;103042.66;16142288;19;129596;-46
2022/03/26 06:10:49;;;;;;;8.45;5.85;;;;;;;18.58;33.84;103041.13;16142313;19;129083;-45
2022/03/26 06:16:11;;;;;;;8.00;6.20;;;;;;;18.56;34.21;103048.78;16141208;19;129360;-46
2022/03/26 06:21:34;;;;;;;9.43;6.50;;;;;;;18.56;33.67;103055.16;16141438;19;130377;-47
2022/03/26 06:26:55;;;;;;;7.28;5.90;;;;;;;18.55;33.96;103063.69;16141086;19;130126;-45
2022/03/26 06:32:18;;;;;;;8.40;6.45;;;;;;;18.55;33.49;103072.84;16139302;19;128875;-45
2022/03/26 06:37:40;;;;;;;8.30;5.57;;;;;;;18.56;33.56;103071.78;16141421;19;130077;-43
2022/03/26 06:43:01;;;;;;;8.05;5.97;;;;;;;18.75;33.84;103073.09;16139345;19;132410;-44
2022/03/26 06:48:23;;;;;;;9.20;6.10;;;;;;;19.06;33.25;103071.09;16140543;19;130392;-45
2022/03/26 06:53:45;;;;;;;7.70;5.95;;;;;;;19.42;32.50;103081.31;16134537;19;129599;-50
2022/03/26 06:59:07;;;;;;;10.43;6.85;;;;;;;19.95;31.84;103083.66;16142255;19;130277;-49
2022/03/26 07:04:29;;;;;;;10.40;6.80;;;;;;;20.52;30.78;103085.50;16134774;19;129064;-49
2022/03/26 07:09:50;;;;;;;12.82;7.57;;;;;;;21.01;30.21;103084.44;16138064;19;129602;-51
2022/03/26 07:15:12;;;;;;;11.82;7.35;;;;;;;21.40;29.75;103097.78;16134407;19;129405;-47
2022/03/26 07:20:34;;;;;;;15.35;7.05;;;;;;;21.64;29.43;103094.41;16137444;19;129619;-53
2022/03/26 07:25:56;;;;;;;12.02;7.13;;;;;;;21.74;29.15;103091.19;16139637;19;130519;-48
2022/03/26 07:31:18;;;;;;;16.10;8.00;;;;;;;21.73;29.35;103108.97;16137294;19;130274;-47
2022/03/26 07:36:40;;;;;;;12.73;8.48;;;;;;;21.66;29.23;103099.78;16137991;19;129940;-48
2022/03/26 07:42:02;;;;;;;16.63;8.23;;;;;;;21.60;28.75;103108.97;16135531;19;129727;-48
2022/03/26 07:47:24;;;;;;;15.63;8.30;;;;;;;21.51;28.96;103111.97;16129318;19;129437;-48
2022/03/26 07:52:45;;;;;;;14.65;8.07;;;;;;;21.43;28.86;103114.91;16133682;19;129308;-49
2022/03/26 07:58:07;;;;;;;15.27;8.75;;;;;;;21.35;29.11;103121.53;16137627;19;129390;-47
2022/03/26 08:03:29;;;;;;;19.13;9.13;;;;;;;21.26;29.03;103121.97;16131877;19;131371;-47
2022/03/26 08:08:51;;;;;;;20.70;9.88;;;;;;;21.15;29.26;103121.53;16132424;19;129133;-50
2022/03/26 08:14:13;;;;;;;21.05;10.13;;;;;;;21.08;29.06;103128.97;16131428;19;129563;-50
2022/03/26 08:19:35;;;;;;;14.75;10.15;;;;;;;21.02;28.78;103130.69;16134700;19;129207;-45
2022/03/26 08:24:57;;;;;;;20.75;10.80;;;;;;;20.95;28.97;103128.94;16136301;19;129138;-68
2022/03/26 08:30:19;;;;;;;16.90;11.00;;;;;;;20.87;29.07;103128.06;16140594;19;128974;-65
2022/03/26 08:35:41;;;;;;;23.67;11.10;;;;;;;20.79;29.42;103128.25;16145682;19;129640;-65
2022/03/26 08:41:04;;;;;;;16.60;10.98;;;;;;;20.72;29.12;103138.44;16149217;19;129498;-52
2022/03/26 08:46:26;;;;;;;19.20;11.05;;;;;;;20.64;29.34;103136.69;16144205;19;129642;-55
2022/03/26 08:51:48;;;;;;;20.70;11.55;;;;;;;20.59;29.13;103142.03;16149430;19;130187;-62
2022/03/26 08:57:10;;;;;;;20.38;12.05;;;;;;;20.52;29.43;103142.00;16148583;19;129078;-68
2022/03/26 09:02:31;;;;;;;20.98;11.13;;;;;;;20.46;29.18;103137.25;16143444;19;128944;-60
2022/03/26 09:07:54;;;;;;;16.10;10.35;;;;;;;20.42;29.41;103136.81;16143142;19;129780;-64
2022/03/26 09:13:16;;;;;;;19.15;11.75;;;;;;;20.38;29.81;103135.47;16145897;19;130433;-69
2022/03/26 09:18:38;;;;;;;22.33;11.55;;;;;;;20.34;29.39;103127.75;16146805;19;129326;-69
2022/03/26 09:24:00;;;;;;;18.42;11.27;;;;;;;20.30;29.45;103130.09;16145497;19;128882;-61
2022/03/26 09:29:22;;;;;;;16.95;10.75;;;;;;;20.27;29.21;103134.16;16146670;19;130223;-68
2022/03/26 09:34:43;;;;;;;24.30;12.80;;;;;;;20.23;29.25;103132.84;16141161;19;129261;-55
2022/03/26 09:40:06;;;;;;;20.42;12.18;;;;;;;20.21;29.37;103123.00;16140779;19;130778;-70
2022/03/26 09:45:28;;;;;;;18.92;12.68;;;;;;;20.17;29.26;103130.00;16143211;19;129115;-63
2022/03/26 09:50:52;;;;;;;20.05;13.00;;;;;;;20.13;29.73;103126.78;16142742;19;128980;-61
2022/03/26 09:56:15;;;;;;;23.00;12.77;;;;;;;20.10;29.41;103118.84;16140670;19;129806;-68
2022/03/26 10:01:37;;;;;;;25.92;14.13;;;;;;;20.08;29.34;103123.75;16141308;19;130453;-67
2022/03/26 10:06:59;;;;;;;21.58;13.73;;;;;;;20.05;29.51;103121.38;16139814;19;128980;-60
2022/03/26 10:12:22;;;;;;;20.30;13.40;;;;;;;20.03;29.39;103120.72;16142287;19;128969;-67
2022/03/26 10:17:44;;;;;;;20.08;13.90;;;;;;;20.00;29.80;103127.53;16141593;19;129051;-56
2022/03/26 10:23:06;;;;;;;22.45;14.15;;;;;;;19.97;29.92;103120.44;16142606;19;129931;-63
2022/03/26 10:28:30;;;;;;;24.85;14.45;;;;;;;19.95;29.74;103122.53;16139278;19;130607;-59
2022/03/26 10:34:04;;;;;;;22.23;14.73;;;;;;;19.91;29.70;103121.25;16140399;19;129479;-55
2022/03/26 10:39:28;;;;;;;21.25;14.25;;;;;;;19.89;29.50;103109.47;16140979;19;131951;-57
2022/03/26 10:44:51;;;;;;;23.52;14.25;;;;;;;19.86;29.53;103111.81;16137977;19;128959;-64
2022/03/26 10:50:14;;;;;;;21.48;13.90;;;;;;;19.85;29.41;103105.38;16142638;19;129124;-69
2022/03/26 10:55:39;;;;;;;22.20;14.65;;;;;;;19.84;29.84;103100.88;16133799;19;128866;-66
2022/03/26 11:01:02;;;;;;;21.93;14.83;;;;;;;19.81;29.73;103096.59;16132619;19;129391;-61
2022/03/26 11:06:25;;;;;;;21.70;14.55;;;;;;;19.82;29.53;103100.22;16140140;19;131229;-58
2022/03/26 11:11:50;;;;;;;21.15;13.13;;;;;;;19.80;29.39;103085.69;16137387;19;130544;-61
2022/03/26 11:17:21;;;;;;;18.30;13.33;;;;;;;19.79;29.44;103081.19;16138562;19;131387;-62
2022/03/26 11:23:21;;;;;;;22.15;13.52;;;;;;;19.77;29.55;103083.31;16137391;19;129708;-66
2022/03/26 11:28:58;;;;;;;22.98;13.55;;;;;;;19.75;29.12;103085.44;16130912;19;130226;-65
2022/03/26 11:34:21;;;;;;;15.73;11.55;;;;;;;19.73;29.49;103082.88;16133032;19;129264;-69
2022/03/26 11:39:44;;;;;;;17.83;11.05;;;;;;;19.74;29.18;103084.59;16135200;19;129780;-61
2022/03/26 11:51:19;;;;;;;19.85;11.30;;;;;;;19.73;29.35;103079.22;16132661;19;128933;-67
2022/03/26 11:56:42;;;;;;;20.58;10.90;;;;;;;19.71;29.43;103067.44;16129148;19;129346;-63
2022/03/26 12:02:23;;;;;;;16.48;10.90;;;;;;;19.74;29.27;103055.94;16134657;19;129310;-60
2022/03/26 12:07:45;;;;;;;17.95;10.85;;;;;;;19.72;29.09;103060.84;16147539;19;129249;-58
2022/03/26 12:13:08;;;;;;;15.45;9.60;;;;;;;19.73;29.17;103059.78;16150227;19;130147;-64
2022/03/26 12:18:39;;;;;;;16.33;9.00;;;;;;;19.72;29.47;103044.16;16150132;19;129224;-69
2022/03/26 12:24:18;;;;;;;19.55;9.52;;;;;;;19.73;29.51;103032.00;16145432;19;129266;-58
2022/03/26 12:29:40;;;;;;;13.07;8.93;;;;;;;19.69;29.42;103024.06;16146050;19;129485;-67
2022/03/26 12:35:05;;;;;;;18.55;8.82;;;;;;;19.70;29.24;103027.72;16146083;19;130343;-62
2022/03/26 12:40:27;;;;;;;16.90;8.40;;;;;;;19.69;29.30;103012.97;16148430;19;129151;-62
2022/03/26 12:45:51;;;;;;;16.70;7.65;;;;;;;19.71;29.35;103020.22;16141765;19;129856;-70
2022/03/26 12:51:12;;;;;;;13.63;7.60;;;;;;;19.68;29.17;103014.06;16145162;19;129099;-52
2022/03/26 12:56:35;;;;;;;14.45;7.78;;;;;;;19.68;29.21;103008.50;16136943;19;130629;-67
2022/03/26 13:02:00;;;;;;;11.85;6.95;;;;;;;19.67;28.95;103006.78;16141881;19;130829;-60
2022/03/26 13:07:22;;;;;;;15.40;7.88;;;;;;;19.66;29.07;103005.06;16144370;19;129568;-50
2022/03/26 13:12:47;;;;;;;16.88;7.20;;;;;;;19.65;28.96;102992.22;16138043;19;130272;-49
2022/03/26 13:18:10;;;;;;;12.67;6.93;;;;;;;19.66;29.08;102988.41;16144051;19;129371;-59
2022/03/26 13:23:34;;;;;;;12.98;6.20;;;;;;;19.68;28.62;102985.41;16141985;19;129107;-48
2022/03/26 13:28:56;;;;;;;14.55;6.93;;;;;;;19.67;29.14;102983.69;16139299;19;131174;-46
2022/03/26 13:34:26;;;;;;;18.52;6.60;;;;;;;19.66;29.16;102977.28;16139561;19;130337;-53
2022/03/26 13:39:54;;;;;;;12.38;6.57;;;;;;;19.64;28.99;102970.19;16139008;19;129572;-50
2022/03/26 13:45:16;;;;;;;13.90;6.65;;;;;;;19.61;28.95;102957.59;16139170;19;128992;-54
2022/03/26 13:50:40;;;;;;;12.75;6.85;;;;;;;19.62;28.82;102958.47;16136887;19;130050;-61
2022/03/26 13:56:27;;;;;;;11.23;5.82;;;;;;;19.61;29.13;102954.81;16137089;19;129326;-46
2022/03/26 14:01:51;;;;;;;12.60;6.30;;;;;;;19.61;28.68;102957.59;16140826;19;129331;-53
2022/03/26 14:07:14;;;;;;;19.27;10.02;;;;;;;19.59;28.90;102948.59;16140804;19;129815;-54
2022/03/26 14:12:36;;;;;;;25.35;15.45;;;;;;;19.64;29.29;102940.53;16142382;19;129405;-56
2022/03/26 14:17:59;;;;;;;26.58;15.65;;;;;;;19.70;29.47;102947.19;16139041;19;129529;-59
2022/03/26 14:23:21;;;;;;;25.40;15.65;;;;;;;19.75;29.42;102935.47;16139070;19;129056;-56
2022/03/26 14:28:43;;;;;;;23.98;12.65;;;;;;;19.73;29.55;102932.03;16137437;19;130179;-62
2022/03/26 14:34:04;;;;;;;20.02;9.88;;;;;;;19.74;29.35;102928.19;16135783;19;129118;-59
2022/03/26 14:39:44;;;;;;;23.13;10.32;;;;;;;19.72;29.05;102933.09;16136556;19;129246;-56
2022/03/26 14:45:07;;;;;;;16.95;8.93;;;;;;;19.69;29.35;102926.88;16136087;19;130084;-61
2022/03/26 14:50:29;;;;;;;16.13;7.55;;;;;;;19.67;28.98;102911.50;16140688;19;129474;-59
2022/03/26 14:55:52;;;;;;;19.13;7.57;;;;;;;19.66;29.09;102916.19;16136146;19;129471;-53
2022/03/26 15:01:14;;;;;;;15.95;7.47;;;;;;;19.64;28.81;102907.22;16140695;19;129240;-60
2022/03/26 15:06:37;;;;;;;16.00;6.78;;;;;;;19.63;28.78;102907.44;16139205;19;131117;-57
2022/03/26 15:12:00;;;;;;;11.93;5.72;;;;;;;19.62;28.93;102912.09;16139054;19;130333;-68
2022/03/26 15:17:22;;;;;;;14.65;6.40;;;;;;;19.61;28.95;102895.66;16134650;19;129064;-56
2022/03/26 15:22:44;;;;;;;12.88;5.93;;;;;;;19.59;28.99;102898.63;16140629;19;129997;-62
2022/03/26 15:28:08;;;;;;;13.13;5.40;;;;;;;19.59;28.96;102904.19;16140367;19;129415;-46
2022/03/26 15:33:29;;;;;;;9.45;5.40;;;;;;;19.58;28.99;102901.63;16137786;19;129372;-46
2022/03/26 15:38:51;;;;;;;8.05;5.18;;;;;;;19.57;28.90;102905.47;16134405;19;129419;-47
2022/03/26 15:44:13;;;;;;;12.75;5.15;;;;;;;19.55;28.67;102899.25;16150029;19;129250;-47
2022/03/26 15:49:35;;;;;;;8.43;4.72;;;;;;;19.53;29.20;102891.97;16151924;19;130803;-48
2022/03/26 15:54:57;;;;;;;8.90;4.63;;;;;;;19.53;29.15;102902.25;16150581;19;129371;-47
2022/03/26 16:00:19;;;;;;;8.70;4.47;;;;;;;19.52;28.76;102894.97;16150145;19;129548;-46
2022/03/26 16:05:41;;;;;;;6.45;4.20;;;;;;;19.51;28.93;102890.47;16152601;19;129327;-49
2022/03/26 16:11:03;;;;;;;6.15;3.88;;;;;;;19.50;29.04;102888.75;16151453;19;129446;-49
2022/03/26 16:16:33;;;;;;;4.68;3.22;;;;;;;19.49;28.97;102887.91;16149254;19;131900;-48
2022/03/26 16:21:55;;;;;;;5.40;3.15;;;;;;;19.48;28.46;102890.88;16151453;19;129021;-48
2022/03/26 16:27:17;;;;;;;6.60;3.70;;;;;;;19.47;28.47;102884.47;16149663;19;129458;-45
2022/03/26 16:32:39;;;;;;;5.85;3.22;;;;;;;19.46;28.36;102887.44;16148418;19;129512;-47
2022/03/26 16:38:01;;;;;;;7.10;3.20;;;;;;;19.46;28.47;102890.22;16145495;19;129549;-46
2022/03/26 16:43:23;;;;;;;5.38;3.13;;;;;;;19.45;28.38;102885.72;16148379;19;129480;-49
2022/03/26 16:48:45;;;;;;;5.28;2.88;;;;;;;19.44;28.43;102881.25;16148375;19;129506;-45
2022/03/26 16:54:08;;;;;;;5.32;2.60;;;;;;;19.42;28.20;102886.16;16147610;19;129113;-48
2022/03/26 16:59:29;;;;;;;6.75;3.00;;;;;;;19.41;28.22;102896.38;16147605;19;128985;-45
2022/03/26 17:04:51;;;;;;;3.67;2.80;;;;;;;19.42;28.50;102897.25;16148819;19;129546;-47
2022/03/26 17:10:13;;;;;;;6.53;2.55;;;;;;;19.41;28.76;102884.44;16148091;19;128961;-45
2022/03/26 17:15:35;;;;;;;4.05;2.45;;;;;;;19.38;28.32;102889.34;16143670;19;129520;-45
2022/03/26 17:20:57;;;;;;;5.53;3.22;;;;;;;19.36;28.18;102898.94;16141383;19;133740;-46
2022/03/26 17:26:20;;;;;;;3.95;2.60;;;;;;;19.36;28.10;102907.25;16147608;19;129563;-48
2022/03/26 17:31:42;;;;;;;4.28;2.92;;;;;;;19.35;28.18;102903.63;16145862;19;129313;-48
2022/03/26 17:37:04;;;;;;;4.82;3.15;;;;;;;19.34;28.54;102901.06;16141470;19;129762;-46
2022/03/26 17:42:26;;;;;;;5.38;3.05;;;;;;;19.33;28.41;102900.19;16144820;19;129749;-46
2022/03/26 17:47:47;;;;;;;4.00;2.92;;;;;;;19.31;28.25;102907.88;16143070;19;129078;-53
2022/03/26 17:53:13;;;;;;;3.53;2.50;;;;;;;19.30;28.75;102911.72;16143777;19;129597;-47
2022/03/26 17:58:35;;;;;;;3.63;2.60;;;;;;;19.28;28.48;102916.59;16137636;19;129708;-47
2022/03/26 18:03:57;;;;;;;5.35;2.80;;;;;;;19.30;28.54;102910.84;16141374;19;129508;-45
2022/03/26 18:09:19;;;;;;;6.70;3.00;;;;;;;19.28;28.87;102908.28;16142920;19;128988;-49
2022/03/26 18:14:40;;;;;;;3.45;3.08;;;;;;;19.27;28.48;102917.66;16142729;19;129568;-48
2022/03/26 18:20:04;;;;;;;6.50;3.75;;;;;;;19.25;28.82;102921.69;16142674;19;129932;-50
2022/03/26 18:25:26;;;;;;;7.00;3.47;;;;;;;19.25;29.04;102924.47;16141718;19;129361;-46
2022/03/26 18:30:47;;;;;;;4.55;3.22;;;;;;;19.24;28.73;102928.31;16140656;19;129423;-48
2022/03/26 18:36:11;;;;;;;5.57;4.05;;;;;;;19.22;29.03;102925.72;16139300;19;130067;-46
2022/03/26 18:41:38;;;;;;;6.22;4.03;;;;;;;19.20;29.07;102936.16;16138239;19;130021;-48
2022/03/26 18:47:01;;;;;;;6.65;4.13;;;;;;;19.19;29.04;102942.75;16135282;19;129009;-49
2022/03/26 18:52:22;;;;;;;7.05;4.10;;;;;;;19.18;28.91;102957.69;16130533;19;130410;-45
2022/03/26 18:57:44;;;;;;;5.40;4.13;;;;;;;19.16;29.18;102963.41;16132932;19;130542;-51
2022/03/26 19:03:10;;;;;;;7.03;4.05;;;;;;;19.17;28.96;102956.81;16138414;19;129433;-48
2022/03/26 19:08:35;;;;;;;5.78;4.13;;;;;;;19.31;29.05;102963.38;16133632;19;130898;-45
2022/03/26 19:13:57;;;;;;;4.82;3.65;;;;;;;19.56;28.80;102962.91;16135290;19;130990;-49
2022/03/26 19:19:19;;;;;;;10.05;4.18;;;;;;;19.89;29.16;102976.13;16136839;19;131530;-44
2022/03/26 19:24:40;;;;;;;11.60;4.18;;;;;;;20.20;29.04;102972.03;16137964;19;129640;-47
2022/03/26 19:30:04;;;;;;;8.45;4.10;;;;;;;20.49;28.79;102977.50;16131299;19;129610;-46
2022/03/26 19:35:27;;;;;;;5.90;3.92;;;;;;;20.76;28.18;102986.81;16132714;19;129471;-48
2022/03/26 19:40:52;;;;;;;7.15;4.22;;;;;;;21.02;27.97;102985.13;16134666;19;129316;-48
2022/03/26 19:46:15;;;;;;;10.20;4.70;;;;;;;21.20;28.01;102988.13;16120975;19;129867;-48
2022/03/26 19:51:37;;;;;;;12.43;4.40;;;;;;;21.40;28.11;102998.41;16129548;19;130076;-50
2022/03/26 19:56:59;;;;;;;11.18;5.72;;;;;;;21.54;27.52;103004.00;16131212;19;131871;-48
2022/03/26 20:02:20;;;;;;;12.68;5.40;;;;;;;21.68;27.57;103000.13;16132855;19;130797;-48
2022/03/26 20:07:42;;;;;;;8.23;5.00;;;;;;;21.80;27.49;103012.31;16133224;19;128963;-50
2022/03/26 20:13:05;;;;;;;7.63;4.70;;;;;;;21.91;27.57;103015.53;16132738;19;129325;-52
2022/03/26 20:18:42;;;;;;;8.80;4.32;;;;;;;21.93;27.71;103016.13;16128510;19;129448;-50
2022/03/26 20:24:04;;;;;;;6.55;4.40;;;;;;;21.89;27.50;103020.44;16131403;19;131997;-50
2022/03/26 20:29:26;;;;;;;9.65;4.80;;;;;;;21.80;27.81;103026.22;16148721;19;130310;-49
2022/03/26 20:34:48;;;;;;;9.95;4.80;;;;;;;21.69;28.08;103032.47;16147754;19;129542;-47
2022/03/26 20:40:10;;;;;;;8.73;5.20;;;;;;;21.59;28.49;103034.84;16146118;19;130485;-49
2022/03/26 20:45:32;;;;;;;10.27;5.38;;;;;;;21.50;28.73;103039.75;16143504;19;129575;-50
2022/03/26 20:50:54;;;;;;;9.00;4.88;;;;;;;21.44;28.54;103049.81;16147226;19;129288;-48
2022/03/26 20:56:16;;;;;;;9.65;5.10;;;;;;;21.45;28.65;103051.53;16143846;19;129372;-50
2022/03/26 21:01:37;;;;;;;7.32;4.60;;;;;;;21.50;28.54;103049.00;16140788;19;130708;-50
2022/03/26 21:07:00;;;;;;;6.40;4.20;;;;;;;21.60;28.54;103047.69;16141804;19;129681;-49
2022/03/26 21:12:21;;;;;;;7.18;4.10;;;;;;;21.72;28.60;103051.53;16143791;19;129587;-49
2022/03/26 21:17:44;;;;;;;5.88;4.10;;;;;;;21.80;28.62;103048.53;16138825;19;129429;-47
2022/03/26 21:23:05;;;;;;;8.30;4.10;;;;;;;21.80;29.02;103050.47;16143803;19;129682;-48
2022/03/26 21:28:27;;;;;;;7.18;3.70;;;;;;;21.75;28.79;103053.03;16139931;19;130279;-47
2022/03/26 21:33:49;;;;;;;7.60;3.55;;;;;;;21.65;29.18;103051.56;16138791;19;132113;-49
2022/03/26 21:39:12;;;;;;;6.82;3.60;;;;;;;21.56;29.15;103046.41;16133156;19;129855;-47
2022/03/26 21:44:33;;;;;;;6.93;3.92;;;;;;;21.46;29.58;103044.88;16139802;19;130523;-47
2022/03/26 21:49:55;;;;;;;8.05;3.92;;;;;;;21.35;29.59;103051.09;16138991;19;130849;-49
2022/03/26 21:55:17;;;;;;;6.13;4.00;;;;;;;21.22;29.45;103052.78;16141279;19;128897;-48
2022/03/26 22:00:46;;;;;;;7.40;3.72;;;;;;;21.15;29.84;103051.06;16143435;19;129453;-49
2022/03/26 22:06:08;;;;;;;8.23;3.55;;;;;;;21.08;29.94;103056.63;16138685;19;129376;-48
2022/03/26 22:11:30;;;;;;;6.40;3.72;;;;;;;20.99;29.84;103044.81;16141181;19;130728;-45
2022/03/26 22:16:52;;;;;;;4.85;3.72;;;;;;;20.89;29.80;103042.47;16136916;19;129303;-48
2022/03/26 22:22:14;;;;;;;5.57;3.50;;;;;;;20.82;29.82;103047.16;16140882;19;130778;-49
2022/03/26 22:27:37;;;;;;;5.93;3.30;;;;;;;20.73;29.62;103060.38;16139606;19;129745;-46
2022/03/26 22:32:59;;;;;;;8.82;3.70;;;;;;;20.63;30.35;103054.31;16137107;19;130179;-49
2022/03/26 22:38:20;;;;;;;5.95;3.40;;;;;;;20.53;30.14;103053.84;16137084;19;130474;-51
2022/03/26 22:43:42;;;;;;;4.45;3.22;;;;;;;20.44;30.20;103053.19;16137921;19;129445;-51
2022/03/26 22:49:04;;;;;;;6.18;3.42;;;;;;;20.38;30.53;103059.56;16136892;19;130291;-49
2022/03/26 22:54:26;;;;;;;7.95;3.42;;;;;;;20.29;30.46;103059.75;16134264;19;129060;-49
2022/03/26 22:59:47;;;;;;;5.03;3.33;;;;;;;20.23;30.48;103060.56;16135348;19;130197;-46
2022/03/26 23:05:09;;;;;;;5.10;2.90;;;;;;;20.18;30.32;103054.78;16139675;19;129289;-47
2022/03/26 23:10:31;;;;;;;4.85;3.22;;;;;;;20.13;30.49;103060.09;16138070;19;129827;-46
2022/03/26 23:15:53;;;;;;;7.22;3.47;;;;;;;20.11;30.47;103062.22;16132953;19;129066;-47
2022/03/26 23:21:14;;;;;;;7.75;3.10;;;;;;;20.06;30.54;103050.88;16134847;19;130925;-46
2022/03/26 23:26:36;;;;;;;3.97;2.80;;;;;;;20.02;30.51;103058.72;16136124;19;130326;-48
2022/03/26 23:31:58;;;;;;;4.28;2.63;;;;;;;19.99;30.74;103054.44;16132559;19;129805;-48
2022/03/26 23:37:20;;;;;;;4.53;3.20;;;;;;;19.96;30.66;103053.97;16134762;19;129635;-46
2022/03/26 23:42:42;;;;;;;3.92;2.60;;;;;;;19.93;30.79;103059.91;16133881;19;130896;-46
2022/03/26 23:48:04;;;;;;;4.68;2.97;;;;;;;19.88;30.58;103057.75;16133042;19;129858;-52
2022/03/26 23:53:26;;;;;;;3.33;2.80;;;;;;;19.86;30.61;103072.91;16132541;19;129587;-47
2022/03/26 23:58:48;;;;;;;5.70;3.28;;;;;;;19.82;30.54;103072.44;16129929;19;130167;-50
